Lambert Lake, Maine
Current Conditions -  °F | °C
As of 7:53 AM on Saturday 25 Oct 2014 (Local Time) from KHUL Reporting Station
Overcast Overcast  
Wind Chill: 41°   Ceiling: 1700
Heat Index: 41°   Visibility: 8mi
Dew Point: 38°   Wind: 3mph
Humidity: 89%   Direction: 340°NNW
Pressure: 29.63"   Gusts: NA
Location:  45.55°N, 67.53°W
Report Text: KHUL 251153Z AUTO 34003KT 8SM OVC017 05/03 A2963 RMK AO2 SLP037 70014 T00500033 10056 20050 53007
Loading
Personal Weather Stations






























Interactive Weather Map
Tropical Storm Tracking
New forecast layout! Learn more

10-Day Weather Forecast

Advertisements
Track Severe Weather on mobile